createdAt,value
2017-09-17T00:00:56.356Z,0
2017-09-17T00:01:56.375Z,0
2017-09-17T00:02:56.395Z,0
2017-09-17T00:03:56.420Z,0
2017-09-17T00:04:56.133Z,0
2017-09-17T00:05:56.462Z,0
2017-09-17T00:06:56.480Z,0
2017-09-17T00:07:56.503Z,0
2017-09-17T00:08:56.213Z,0
2017-09-17T00:09:56.228Z,0
2017-09-17T00:10:56.563Z,0
2017-09-17T00:12:11.205Z,0
2017-09-17T00:13:10.913Z,0
2017-09-17T00:14:11.244Z,0
2017-09-17T00:14:56.653Z,0
2017-09-17T00:15:56.664Z,0
2017-09-17T00:16:56.683Z,0
2017-09-17T00:18:56.728Z,0
2017-09-17T00:19:56.743Z,0
2017-09-17T00:20:56.768Z,0
2017-09-17T00:21:56.804Z,0
2017-09-17T00:22:56.803Z,0
2017-09-17T00:23:56.516Z,0
2017-09-17T00:25:56.864Z,0
2017-09-17T00:26:56.578Z,0
2017-09-17T00:27:56.906Z,0
2017-09-17T00:28:56.924Z,0
2017-09-17T00:30:11.569Z,0
2017-09-17T00:31:11.587Z,0
2017-09-17T00:31:56.682Z,0
2017-09-17T00:32:57.006Z,0
2017-09-17T00:33:56.721Z,0
2017-09-17T00:34:56.741Z,0
2017-09-17T00:36:56.787Z,0
2017-09-17T00:37:56.797Z,0
2017-09-17T00:38:56.823Z,0
2017-09-17T00:40:11.779Z,0
2017-09-17T00:40:57.170Z,0
2017-09-17T00:43:56.921Z,0
2017-09-17T00:45:11.881Z,0
2017-09-17T00:45:57.269Z,0
2017-09-17T00:46:56.990Z,0
2017-09-17T00:47:57.313Z,0
2017-09-17T00:48:57.331Z,0
2017-09-17T00:49:57.376Z,0
2017-09-17T00:50:56.762Z,0
2017-09-17T00:51:57.698Z,0
2017-09-17T00:52:57.414Z,0
2017-09-17T00:53:57.436Z,0
2017-09-17T00:54:57.453Z,0
2017-09-17T00:55:57.164Z,0
2017-09-17T00:56:57.187Z,0
2017-09-17T00:57:57.534Z,0
2017-09-17T00:58:57.533Z,0
2017-09-17T00:59:57.555Z,0
2017-09-17T01:01:12.191Z,0
2017-09-17T01:01:57.592Z,0
2017-09-17T01:02:57.613Z,0
2017-09-17T01:04:12.252Z,0
2017-09-17T01:04:57.657Z,0
2017-09-17T01:06:11.988Z,0
2017-09-17T01:06:57.690Z,0
2017-09-17T01:07:57.420Z,0
2017-09-17T01:09:57.441Z,0
2017-09-17T01:10:57.773Z,0
2017-09-17T01:11:57.794Z,0
2017-09-17T01:12:57.818Z,0
2017-09-17T01:13:57.831Z,0
2017-09-17T01:14:57.546Z,0
2017-09-17T01:16:12.496Z,0
2017-09-17T01:17:12.513Z,0
2017-09-17T01:17:57.912Z,0
2017-09-17T01:18:57.936Z,0
2017-09-17T01:19:57.344Z,0
2017-09-17T01:20:57.666Z,0
2017-09-17T01:21:57.996Z,0
2017-09-17T01:23:12.631Z,0
2017-09-17T01:23:58.040Z,0
2017-09-17T01:24:58.051Z,0
2017-09-17T01:25:58.069Z,0
2017-09-17T01:26:57.786Z,0
2017-09-17T01:27:58.111Z,0
2017-09-17T01:28:58.144Z,0
2017-09-17T01:29:57.841Z,0
2017-09-17T01:30:58.175Z,0
2017-09-17T01:31:58.195Z,0
2017-09-17T01:33:12.837Z,0
2017-09-17T01:34:12.853Z,0
2017-09-17T01:35:12.871Z,0
2017-09-17T01:35:58.269Z,0
2017-09-17T01:36:57.675Z,0
2017-09-17T01:37:58.311Z,0
2017-09-17T01:38:58.337Z,0
2017-09-17T01:39:58.352Z,0
2017-09-17T01:40:58.371Z,0
2017-09-17T01:41:58.389Z,0
2017-09-17T01:42:58.104Z,0
2017-09-17T01:43:58.429Z,0
2017-09-17T01:44:58.451Z,0
2017-09-17T01:45:58.474Z,0
2017-09-17T01:47:13.116Z,0
2017-09-17T01:48:13.141Z,0
2017-09-17T01:48:58.540Z,0
2017-09-17T01:49:58.550Z,0
2017-09-17T01:51:13.192Z,0
2017-09-17T01:52:13.209Z,0
2017-09-17T01:52:58.612Z,0
2017-09-17T01:53:58.626Z,0
2017-09-17T01:54:58.644Z,0
2017-09-17T01:55:58.363Z,0
2017-09-17T01:56:58.078Z,0
2017-09-17T01:57:58.709Z,0
2017-09-17T01:58:58.422Z,0
2017-09-17T01:59:58.442Z,0
2017-09-17T02:00:58.818Z,0
2017-09-17T02:02:58.807Z,0
2017-09-17T02:03:58.826Z,0
2017-09-17T02:05:13.469Z,0
2017-09-17T02:05:58.865Z,0
2017-09-17T02:07:13.505Z,0
2017-09-17T02:08:13.524Z,0
2017-09-17T02:08:58.614Z,0
2017-09-17T02:10:13.562Z,0
2017-09-17T02:10:58.964Z,0
2017-09-17T02:11:58.365Z,0
2017-09-17T02:12:59.005Z,0
2017-09-17T02:13:58.716Z,0
2017-09-17T02:14:59.043Z,0
2017-09-17T02:16:59.086Z,0
2017-09-17T02:18:13.727Z,0
2017-09-17T02:20:13.451Z,0
2017-09-17T02:21:13.780Z,0
2017-09-17T02:21:59.182Z,0
2017-09-17T02:23:13.822Z,0
2017-09-17T02:23:58.911Z,0
2017-09-17T02:24:59.237Z,0
2017-09-17T02:25:59.261Z,0
2017-09-17T02:26:59.280Z,0
2017-09-17T02:27:59.300Z,0
2017-09-17T02:28:59.006Z,0
2017-09-17T02:29:58.719Z,0
2017-09-17T02:30:59.362Z,0
2017-09-17T02:31:59.389Z,0
2017-09-17T02:33:14.018Z,0
2017-09-17T02:33:59.413Z,0
2017-09-17T02:34:59.149Z,0
2017-09-17T02:36:14.077Z,0
2017-09-17T02:36:59.478Z,0
2017-09-17T02:37:59.496Z,0
2017-09-17T02:39:14.131Z,0
2017-09-17T02:39:59.225Z,0
2017-09-17T02:40:59.553Z,0
2017-09-17T02:41:59.269Z,0
2017-09-17T02:42:59.284Z,0
2017-09-17T02:43:59.612Z,0
2017-09-17T02:44:59.675Z,0
2017-09-17T02:45:59.657Z,0
2017-09-17T02:46:59.668Z,0
2017-09-17T02:47:59.689Z,0
2017-09-17T02:48:59.410Z,0
2017-09-17T02:49:59.422Z,0
2017-09-17T02:50:59.135Z,0
2017-09-17T02:52:14.391Z,0
2017-09-17T02:52:59.800Z,0
2017-09-17T02:53:59.809Z,0
2017-09-17T02:54:59.828Z,0
2017-09-17T02:55:59.849Z,0
2017-09-17T02:56:59.861Z,0
2017-09-17T02:57:59.884Z,0
2017-09-17T02:58:59.921Z,0
2017-09-17T02:59:59.930Z,0
2017-09-17T03:00:59.635Z,0
2017-09-17T03:01:59.655Z,0
2017-09-17T03:02:59.670Z,0
2017-09-17T03:03:59.998Z,0
2017-09-17T03:05:00.029Z,0
2017-09-17T03:05:59.731Z,0
2017-09-17T03:06:59.753Z,0
2017-09-17T03:08:14.695Z,0
2017-09-17T03:08:59.788Z,0
2017-09-17T03:10:14.735Z,0
2017-09-17T03:11:00.131Z,0
2017-09-17T03:12:00.161Z,0
2017-09-17T03:12:59.866Z,0
2017-09-17T03:14:14.812Z,0
2017-09-17T03:15:00.216Z,0
2017-09-17T03:16:00.231Z,0
2017-09-17T03:17:00.250Z,0
2017-09-17T03:18:00.272Z,0
2017-09-17T03:20:00.002Z,0
2017-09-17T03:21:00.330Z,0
2017-09-17T03:22:00.347Z,0
2017-09-17T03:23:14.992Z,0
2017-09-17T03:24:00.390Z,0
2017-09-17T03:25:00.412Z,0
2017-09-17T03:26:15.045Z,0
2017-09-17T03:27:00.450Z,0
2017-09-17T03:28:00.469Z,0
2017-09-17T03:29:00.486Z,0
2017-09-17T03:30:00.516Z,0
2017-09-17T03:31:00.530Z,0
2017-09-17T03:32:00.541Z,0
2017-09-17T03:33:00.561Z,0
2017-09-17T03:34:00.277Z,0
2017-09-17T03:35:15.229Z,0
2017-09-17T03:36:00.321Z,0
2017-09-17T03:37:00.327Z,0
2017-09-17T03:38:00.658Z,0
2017-09-17T03:39:00.679Z,0
2017-09-17T03:40:00.699Z,0
2017-09-17T03:41:00.714Z,0
2017-09-17T03:42:00.764Z,0
2017-09-17T03:44:15.391Z,0
2017-09-17T03:45:00.827Z,0
2017-09-17T03:46:00.814Z,0
2017-09-17T03:47:00.833Z,0
2017-09-17T03:48:00.850Z,0
2017-09-17T03:49:00.871Z,0
2017-09-17T03:50:00.890Z,0
2017-09-17T03:51:00.907Z,0
2017-09-17T03:52:00.925Z,0
2017-09-17T03:53:00.949Z,0
2017-09-17T03:54:00.965Z,0
2017-09-17T03:55:15.609Z,0
2017-09-17T03:57:15.644Z,0
2017-09-17T03:58:01.046Z,0
2017-09-17T03:59:00.477Z,0
2017-09-17T04:00:00.780Z,0
2017-09-17T04:01:01.106Z,0
2017-09-17T04:02:15.432Z,0
2017-09-17T04:03:01.141Z,0
2017-09-17T04:04:01.159Z,0
2017-09-17T04:05:01.188Z,0
2017-09-17T04:06:01.195Z,0
2017-09-17T04:08:01.233Z,0
2017-09-17T04:09:01.256Z,4
2017-09-17T04:10:01.274Z,4
2017-09-17T04:11:15.911Z,4
2017-09-17T04:12:01.004Z,0
2017-09-17T04:14:01.045Z,4
2017-09-17T04:15:01.367Z,4
2017-09-17T04:16:01.388Z,8
2017-09-17T04:17:01.096Z,4
2017-09-17T04:18:00.804Z,12
2017-09-17T04:19:15.755Z,8
2017-09-17T04:20:00.849Z,16
2017-09-17T04:21:01.172Z,16
2017-09-17T04:22:01.500Z,20
2017-09-17T04:23:01.519Z,20
2017-09-17T04:24:01.538Z,24
2017-09-17T04:25:01.561Z,28
2017-09-17T04:26:01.587Z,32
2017-09-17T04:27:15.914Z,40
2017-09-17T04:28:16.233Z,48
2017-09-17T04:29:16.253Z,60
2017-09-17T04:30:01.660Z,64
2017-09-17T04:31:01.674Z,76
2017-09-17T04:32:16.006Z,92
2017-09-17T04:33:01.709Z,100
2017-09-17T04:34:01.734Z,116
2017-09-17T04:35:01.748Z,128
2017-09-17T04:36:01.465Z,140
2017-09-17T04:37:01.782Z,156
2017-09-17T04:38:01.836Z,172
2017-09-17T04:39:01.519Z,196
2017-09-17T04:41:01.558Z,256
2017-09-17T04:42:01.574Z,288
2017-09-17T04:43:16.217Z,336
2017-09-17T04:45:16.556Z,416
2017-09-17T04:46:01.342Z,452
2017-09-17T04:47:02.004Z,496
2017-09-17T04:48:01.998Z,544
2017-09-17T04:49:01.393Z,600
2017-09-17T04:50:02.033Z,668
2017-09-17T04:51:01.751Z,728
2017-09-17T04:52:02.068Z,784
2017-09-17T04:53:02.089Z,848
2017-09-17T04:54:02.107Z,904
2017-09-17T04:55:01.816Z,956
2017-09-17T04:56:02.142Z,1020
2017-09-17T04:57:02.166Z,1068
2017-09-17T04:58:16.805Z,1128
2017-09-17T04:59:02.202Z,1172
2017-09-17T05:00:16.842Z,1260
2017-09-17T05:01:02.244Z,1332
2017-09-17T05:02:02.264Z,1420
2017-09-17T05:03:16.591Z,1500
2017-09-17T05:04:16.611Z,1564
2017-09-17T05:05:02.334Z,1612
2017-09-17T05:06:02.339Z,1700
2017-09-17T05:07:02.406Z,1816
2017-09-17T05:08:02.372Z,1936
2017-09-17T05:09:02.392Z,2060
2017-09-17T05:10:02.101Z,2200
2017-09-17T05:11:02.431Z,2376
2017-09-17T05:12:02.452Z,2520
2017-09-17T05:13:02.472Z,2664
2017-09-17T05:14:02.492Z,2796
2017-09-17T05:15:02.515Z,2920
2017-09-17T05:16:17.149Z,2988
2017-09-17T05:17:17.164Z,3136
2017-09-17T05:18:02.262Z,3284
2017-09-17T05:19:02.585Z,3408
2017-09-17T05:20:02.604Z,3528
2017-09-17T05:21:02.007Z,3652
2017-09-17T05:22:02.640Z,3784
2017-09-17T05:23:02.659Z,3900
2017-09-17T05:24:02.678Z,3980
2017-09-17T05:25:02.393Z,4296
2017-09-17T05:26:02.510Z,4500
2017-09-17T05:27:02.429Z,4592
2017-09-17T05:28:02.447Z,4804
2017-09-17T05:29:02.466Z,4936
2017-09-17T05:30:17.413Z,4980
2017-09-17T05:31:02.814Z,4660
2017-09-17T05:32:02.835Z,5068
2017-09-17T05:33:02.850Z,5676
2017-09-17T05:34:02.878Z,5836
2017-09-17T05:35:02.892Z,6240
2017-09-17T05:36:02.919Z,6116
2017-09-17T05:37:02.930Z,5152
2017-09-17T05:38:02.638Z,4900
2017-09-17T05:39:02.978Z,5240
2017-09-17T05:40:02.678Z,5884
2017-09-17T05:41:02.703Z,6444
2017-09-17T05:42:03.035Z,6468
2017-09-17T05:43:03.048Z,6404
2017-09-17T05:44:02.755Z,6372
2017-09-17T05:45:03.088Z,6404
2017-09-17T05:46:17.729Z,6448
2017-09-17T05:47:02.817Z,6972
2017-09-17T05:49:02.545Z,7992
2017-09-17T05:50:02.877Z,8120
2017-09-17T05:51:02.895Z,7780
2017-09-17T05:52:03.222Z,8128
2017-09-17T05:53:02.935Z,14496
2017-09-17T05:54:03.265Z,23584
2017-09-17T05:55:03.286Z,28864
2017-09-17T05:56:02.997Z,28256
2017-09-17T05:57:03.319Z,27040
2017-09-17T05:58:03.034Z,32064
2017-09-17T06:00:03.392Z,33120
2017-09-17T06:01:18.031Z,29536
2017-09-17T06:02:18.052Z,21152
2017-09-17T06:03:03.449Z,31680
2017-09-17T06:04:18.094Z,32992
2017-09-17T06:05:03.507Z,31616
2017-09-17T06:06:03.514Z,34144
2017-09-17T06:07:03.542Z,37056
2017-09-17T06:08:03.561Z,36960
2017-09-17T06:09:03.590Z,36000
2017-09-17T06:10:03.612Z,35200
2017-09-17T06:11:03.632Z,33792
2017-09-17T06:12:03.660Z,35648
2017-09-17T06:13:03.681Z,37856
2017-09-17T06:14:03.710Z,39232
2017-09-17T06:15:03.423Z,39488
2017-09-17T06:16:03.753Z,39616
2017-09-17T06:17:18.404Z,40896
2017-09-17T06:18:18.429Z,41248
2017-09-17T06:19:03.837Z,42240
2017-09-17T06:20:18.477Z,43968
2017-09-17T06:21:03.878Z,44896
2017-09-17T06:22:03.905Z,44832
2017-09-17T06:23:03.932Z,45248
2017-09-17T06:24:03.953Z,46304
2017-09-17T06:25:03.991Z,46048
2017-09-17T06:26:04.008Z,45728
2017-09-17T06:27:04.042Z,47104
2017-09-17T06:28:04.064Z,47840
2017-09-17T06:29:04.090Z,47680
2017-09-17T06:30:04.112Z,48544
2017-09-17T06:31:03.835Z,48256
2017-09-17T06:32:04.173Z,47936
2017-09-17T06:33:18.511Z,47776
2017-09-17T06:34:03.303Z,49056
2017-09-17T06:35:03.987Z,48512
2017-09-17T06:36:04.278Z,49664
2017-09-17T06:37:04.310Z,48576
2017-09-17T06:38:18.651Z,45632
2017-09-17T06:39:04.369Z,51776
2017-09-17T06:40:19.009Z,52832
2017-09-17T06:41:18.781Z,50016
2017-09-17T06:42:04.138Z,49856
2017-09-17T06:43:04.475Z,49504
2017-09-17T06:45:04.530Z,46080
2017-09-17T06:46:03.942Z,39136
2017-09-17T06:47:04.277Z,36224
2017-09-17T06:48:19.240Z,31232
2017-09-17T06:49:19.269Z,32480
2017-09-17T06:50:04.361Z,33600
2017-09-17T06:51:04.707Z,37504
2017-09-17T06:52:04.728Z,38400
2017-09-17T06:53:04.761Z,38368
2017-09-17T06:54:04.481Z,42944
2017-09-17T06:55:04.851Z,47904
2017-09-17T06:56:04.839Z,46688
2017-09-17T06:57:04.871Z,38624
2017-09-17T06:58:04.899Z,36704
2017-09-17T06:59:04.311Z,33632
2017-09-17T07:00:04.958Z,34560
2017-09-17T07:01:04.983Z,34752
2017-09-17T07:02:05.012Z,33248
2017-09-17T07:03:04.736Z,32704
2017-09-17T07:04:04.756Z,31648
2017-09-17T07:05:19.717Z,33888
2017-09-17T07:06:19.744Z,34208
2017-09-17T07:07:05.152Z,29888
2017-09-17T07:08:04.863Z,26944
2017-09-17T07:09:05.203Z,24256
2017-09-17T07:10:05.233Z,24512
2017-09-17T07:11:05.261Z,23456
2017-09-17T07:12:05.284Z,23904
2017-09-17T07:13:05.324Z,22848
2017-09-17T07:14:05.028Z,23232
2017-09-17T07:15:05.059Z,25664
2017-09-17T07:16:05.392Z,25664
2017-09-17T07:17:05.423Z,26400
2017-09-17T07:18:05.444Z,26304
2017-09-17T07:19:05.467Z,26912
2017-09-17T07:20:19.813Z,31808
2017-09-17T07:21:20.145Z,34176
2017-09-17T07:22:19.863Z,35360
2017-09-17T07:23:05.269Z,35296
2017-09-17T07:24:05.600Z,35392
2017-09-17T07:25:20.248Z,35040
2017-09-17T07:26:05.660Z,33920
2017-09-17T07:27:05.729Z,34048
2017-09-17T07:28:05.708Z,34496
2017-09-17T07:29:20.382Z,33216
2017-09-17T07:30:05.452Z,35168
2017-09-17T07:31:05.166Z,36480
2017-09-17T07:32:05.822Z,36256
2017-09-17T07:33:05.840Z,37312
2017-09-17T07:34:05.560Z,39424
2017-09-17T07:35:05.890Z,41056
2017-09-17T07:36:05.607Z,40640
2017-09-17T07:37:20.575Z,39360
2017-09-17T07:38:05.661Z,36832
2017-09-17T07:39:06.002Z,35968
2017-09-17T07:40:06.025Z,38144
2017-09-17T07:41:05.748Z,33696
2017-09-17T07:42:06.076Z,34912
2017-09-17T07:43:06.109Z,43168
2017-09-17T07:44:06.180Z,41120
2017-09-17T07:45:06.160Z,37376
2017-09-17T07:46:05.875Z,35904
2017-09-17T07:47:20.523Z,31040
2017-09-17T07:48:06.241Z,28032
2017-09-17T07:49:06.262Z,33824
2017-09-17T07:50:05.985Z,38784
2017-09-17T07:52:06.036Z,33888
2017-09-17T07:53:20.998Z,33952
2017-09-17T07:54:06.409Z,34080
2017-09-17T07:55:06.425Z,30048
2017-09-17T07:56:21.074Z,28992
2017-09-17T07:57:06.515Z,29632
2017-09-17T07:58:06.510Z,29184
2017-09-17T07:59:06.535Z,37888
2017-09-17T08:00:06.559Z,39936
2017-09-17T08:01:06.599Z,39264
2017-09-17T08:02:06.308Z,40704
2017-09-17T08:03:06.653Z,37728
2017-09-17T08:04:06.671Z,34560
2017-09-17T08:05:21.374Z,29280
2017-09-17T08:06:21.350Z,29600
2017-09-17T08:07:06.455Z,30304
2017-09-17T08:08:21.404Z,27808
2017-09-17T08:09:06.495Z,28800
2017-09-17T08:10:06.527Z,26208
2017-09-17T08:12:06.888Z,31296
2017-09-17T08:13:06.607Z,33376
2017-09-17T08:14:06.630Z,31872
2017-09-17T08:15:06.970Z,30240
2017-09-17T08:16:06.997Z,30976
2017-09-17T08:17:07.028Z,29568
2017-09-17T08:18:06.739Z,25760
2017-09-17T08:19:06.773Z,24384
2017-09-17T08:20:07.100Z,25920
2017-09-17T08:22:07.159Z,23296
2017-09-17T08:23:07.181Z,25408
2017-09-17T08:24:07.205Z,25504
2017-09-17T08:25:07.242Z,26048
2017-09-17T08:26:21.887Z,26560
2017-09-17T08:27:07.298Z,27168
2017-09-17T08:28:07.319Z,26912
2017-09-17T08:29:07.346Z,26752
2017-09-17T08:30:07.057Z,24576
2017-09-17T08:31:07.090Z,24896
2017-09-17T08:32:07.424Z,24576
2017-09-17T08:33:07.149Z,23360
2017-09-17T08:34:07.483Z,22272
2017-09-17T08:35:07.503Z,21536
2017-09-17T08:36:07.269Z,21664
2017-09-17T08:37:07.553Z,21376
2017-09-17T08:38:07.276Z,21280
2017-09-17T08:39:07.608Z,20288
2017-09-17T08:40:22.261Z,19680
2017-09-17T08:41:22.288Z,19136
2017-09-17T08:42:07.407Z,18944
2017-09-17T08:43:22.340Z,18784
2017-09-17T08:44:07.740Z,18336
2017-09-17T08:45:07.776Z,17504
2017-09-17T08:46:07.797Z,18912
2017-09-17T08:47:07.830Z,20256
2017-09-17T08:48:07.236Z,20768
2017-09-17T08:49:07.882Z,20224
2017-09-17T08:50:07.595Z,17984
2017-09-17T08:51:07.624Z,20320
2017-09-17T08:53:07.985Z,17856
2017-09-17T08:55:22.666Z,14652
2017-09-17T08:56:22.688Z,13508
2017-09-17T08:57:08.104Z,13244
2017-09-17T08:58:22.748Z,11832
2017-09-17T08:59:08.150Z,11972
2017-09-17T09:00:08.180Z,12296
2017-09-17T09:01:08.207Z,13872
2017-09-17T09:02:08.229Z,14364
2017-09-17T09:03:07.953Z,13516
2017-09-17T09:04:07.667Z,12860
2017-09-17T09:05:08.319Z,12080
2017-09-17T09:06:22.648Z,12564
2017-09-17T09:07:08.408Z,12944
2017-09-17T09:08:08.388Z,12496
2017-09-17T09:09:23.046Z,12536
2017-09-17T09:11:23.100Z,13064
2017-09-17T09:12:23.134Z,12688
2017-09-17T09:13:23.148Z,14084
2017-09-17T09:14:08.559Z,14552
2017-09-17T09:15:08.284Z,14428
2017-09-17T09:16:08.601Z,14232
2017-09-17T09:17:08.320Z,14540
2017-09-17T09:18:08.357Z,15412
2017-09-17T09:19:08.686Z,16656
2017-09-17T09:20:08.719Z,17760
2017-09-17T09:21:08.118Z,15760
2017-09-17T09:22:08.452Z,16524
2017-09-17T09:23:08.799Z,17824
2017-09-17T09:24:08.833Z,19264
2017-09-17T09:25:08.836Z,18816
2017-09-17T09:26:08.863Z,16108
2017-09-17T09:27:08.890Z,15416
2017-09-17T09:28:23.541Z,17568
2017-09-17T09:29:08.634Z,18240
2017-09-17T09:30:23.291Z,17472
2017-09-17T09:31:23.619Z,14368
2017-09-17T09:32:09.027Z,16468
2017-09-17T09:33:08.746Z,16200
2017-09-17T09:34:09.081Z,13388
2017-09-17T09:35:23.419Z,15200
2017-09-17T09:36:23.445Z,17120
2017-09-17T09:37:08.855Z,18496
2017-09-17T09:38:09.184Z,17856
2017-09-17T09:39:09.215Z,17344
2017-09-17T09:40:08.932Z,16820
2017-09-17T09:41:09.269Z,17056
2017-09-17T09:42:08.990Z,17280
2017-09-17T09:43:23.952Z,16052
2017-09-17T09:44:09.356Z,17536
2017-09-17T09:45:09.373Z,16448
2017-09-17T09:46:09.099Z,17440
2017-09-17T09:47:09.430Z,17088
2017-09-17T09:48:09.458Z,15540
2017-09-17T09:49:09.489Z,15028
2017-09-17T09:50:09.203Z,14864
2017-09-17T09:51:09.539Z,15704
2017-09-17T09:52:09.567Z,16152
2017-09-17T09:53:09.594Z,15988
2017-09-17T09:54:09.313Z,16400
2017-09-17T09:55:24.277Z,16520
2017-09-17T09:56:24.303Z,16260
2017-09-17T09:57:24.018Z,15780
2017-09-17T09:58:09.425Z,15916
2017-09-17T09:59:09.756Z,15944
2017-09-17T10:00:09.478Z,15900
2017-09-17T10:01:09.197Z,15344
2017-09-17T10:02:09.845Z,15540
2017-09-17T10:03:09.876Z,15028
2017-09-17T10:04:09.900Z,14924
2017-09-17T10:05:09.922Z,14924
2017-09-17T10:06:09.955Z,14580
2017-09-17T10:08:10.005Z,14224
2017-09-17T10:09:10.037Z,13616
2017-09-17T10:10:24.068Z,13464
2017-09-17T10:11:09.778Z,13948
2017-09-17T10:12:09.809Z,14304
2017-09-17T10:13:09.527Z,14236
2017-09-17T10:14:09.859Z,14096
2017-09-17T10:15:24.849Z,13952
2017-09-17T10:16:09.916Z,14012
2017-09-17T10:17:24.879Z,13924
2017-09-17T10:18:09.976Z,13740
2017-09-17T10:19:24.928Z,13768
2017-09-17T10:20:09.716Z,13668
2017-09-17T10:21:10.054Z,13572
2017-09-17T10:22:10.080Z,13520
2017-09-17T10:23:10.109Z,13452
2017-09-17T10:24:25.074Z,13344
2017-09-17T10:26:10.503Z,13300
2017-09-17T10:27:25.153Z,13096
2017-09-17T10:28:10.244Z,13116
2017-09-17T10:29:10.578Z,13036
2017-09-17T10:30:10.605Z,12964
2017-09-17T10:31:39.567Z,12900
2017-09-17T10:32:24.972Z,12820
2017-09-17T10:33:10.681Z,12756
2017-09-17T10:34:10.410Z,12564
2017-09-17T10:35:10.430Z,12232
2017-09-17T10:36:10.768Z,11776
2017-09-17T10:38:10.511Z,10864
2017-09-17T10:39:10.848Z,10416
2017-09-17T10:40:10.563Z,10060
2017-09-17T10:41:10.585Z,9736
2017-09-17T10:42:24.928Z,9368
2017-09-17T10:43:10.952Z,9160
2017-09-17T10:44:10.358Z,8844
2017-09-17T10:45:10.998Z,8552
2017-09-17T10:46:10.718Z,8292
2017-09-17T10:47:25.675Z,7988
2017-09-17T10:48:10.462Z,7812
2017-09-17T10:49:10.488Z,7584
2017-09-17T10:50:10.827Z,7380
2017-09-17T10:51:11.156Z,7180
2017-09-17T10:52:11.183Z,7004
2017-09-17T10:53:11.209Z,6840
2017-09-17T10:54:11.285Z,6680
2017-09-17T10:55:11.260Z,6520
2017-09-17T10:56:11.287Z,6380
2017-09-17T10:57:11.314Z,6248
2017-09-17T10:58:11.341Z,6132
2017-09-17T10:59:11.366Z,6032
2017-09-17T11:00:11.084Z,5940
2017-09-17T11:03:25.777Z,5688
2017-09-17T11:04:11.181Z,5636
2017-09-17T11:05:25.830Z,5572
2017-09-17T11:06:11.544Z,5536
2017-09-17T11:08:11.594Z,5452
2017-09-17T11:09:11.617Z,5424
2017-09-17T11:10:11.347Z,5396
2017-09-17T11:11:25.984Z,5356
2017-09-17T11:12:11.388Z,5336
2017-09-17T11:13:11.719Z,5316
2017-09-17T11:14:11.130Z,5324
2017-09-17T11:15:11.771Z,5324
2017-09-17T11:16:11.850Z,5332
2017-09-17T11:17:10.894Z,5352
2017-09-17T11:18:26.162Z,5388
2017-09-17T11:19:11.256Z,5420
2017-09-17T11:20:11.587Z,5428
2017-09-17T11:21:11.620Z,5412
2017-09-17T11:22:26.571Z,5404
2017-09-17T11:23:11.980Z,5404
2017-09-17T11:24:11.382Z,5424
2017-09-17T11:26:11.797Z,5456
2017-09-17T11:27:12.073Z,5512
2017-09-17T11:28:11.491Z,5560
2017-09-17T11:29:12.127Z,5628
2017-09-17T11:30:11.533Z,5684
2017-09-17T11:31:12.187Z,5692
2017-09-17T11:32:11.586Z,5704
2017-09-17T11:33:12.227Z,5768
2017-09-17T11:34:11.939Z,5840
2017-09-17T11:35:11.660Z,5892
2017-09-17T11:36:11.685Z,5920
2017-09-17T11:37:11.711Z,5984
2017-09-17T11:38:26.974Z,6136
2017-09-17T11:39:26.383Z,6276
2017-09-17T11:40:26.716Z,6400
2017-09-17T11:41:12.430Z,6448
2017-09-17T11:42:12.147Z,6464
2017-09-17T11:43:12.481Z,6500
2017-09-17T11:44:12.507Z,6560
2017-09-17T11:45:12.574Z,6608
2017-09-17T11:46:11.933Z,6672
2017-09-17T11:47:12.584Z,6708
2017-09-17T11:48:12.604Z,6780
2017-09-17T11:49:12.633Z,6896
2017-09-17T11:50:26.971Z,6960
2017-09-17T11:51:27.319Z,6876
2017-09-17T11:52:27.326Z,5660
2017-09-17T11:53:27.350Z,4920
2017-09-17T11:54:12.755Z,4844
2017-09-17T11:55:12.778Z,4808
2017-09-17T11:56:27.119Z,5988
2017-09-17T11:57:12.830Z,5488
2017-09-17T11:58:12.865Z,5176
2017-09-17T11:59:12.570Z,5216
2017-09-17T12:00:12.290Z,4792
2017-09-17T12:01:12.932Z,5536
2017-09-17T12:02:12.966Z,6264
2017-09-17T12:03:12.978Z,6280
2017-09-17T12:04:12.698Z,6320
2017-09-17T12:05:12.720Z,5604
2017-09-17T12:06:27.370Z,6272
2017-09-17T12:07:12.780Z,6208
2017-09-17T12:08:12.806Z,6256
2017-09-17T12:09:12.826Z,6340
2017-09-17T12:10:12.851Z,6392
2017-09-17T12:11:12.882Z,6384
2017-09-17T12:12:12.949Z,4876
2017-09-17T12:13:13.234Z,6588
2017-09-17T12:14:12.953Z,5344
2017-09-17T12:15:12.667Z,6664
2017-09-17T12:16:12.382Z,7020
2017-09-17T12:18:13.365Z,7064
2017-09-17T12:19:13.382Z,7024
2017-09-17T12:20:13.417Z,7004
2017-09-17T12:21:13.126Z,6448
2017-09-17T12:22:28.085Z,7040
2017-09-17T12:23:13.176Z,7016
2017-09-17T12:24:13.200Z,7280
2017-09-17T12:25:13.535Z,7320
2017-09-17T12:26:13.558Z,7264
2017-09-17T12:27:13.277Z,7256
2017-09-17T12:28:13.612Z,7352
2017-09-17T12:29:13.016Z,7396
2017-09-17T12:30:13.661Z,7440
2017-09-17T12:31:13.684Z,7508
2017-09-17T12:32:13.713Z,7588
2017-09-17T12:33:13.119Z,7700
2017-09-17T12:34:13.760Z,7680
2017-09-17T12:35:13.784Z,8028
2017-09-17T12:36:13.504Z,8020
2017-09-17T12:38:28.480Z,8240
2017-09-17T12:39:13.901Z,8280
2017-09-17T12:40:13.918Z,8348
2017-09-17T12:41:13.948Z,8372
2017-09-17T12:42:14.012Z,8244
2017-09-17T12:43:13.992Z,7844
2017-09-17T12:44:13.707Z,8208
2017-09-17T12:45:28.042Z,8124
2017-09-17T12:46:13.757Z,8108
2017-09-17T12:47:14.091Z,7924
2017-09-17T12:48:13.805Z,7800
2017-09-17T12:51:13.883Z,7772
2017-09-17T12:52:13.908Z,7848
2017-09-17T12:53:28.867Z,6968
2017-09-17T12:56:14.016Z,5784
2017-09-17T12:57:14.033Z,5784
2017-09-17T12:58:13.757Z,5788
2017-09-17T12:59:14.397Z,5744
2017-09-17T13:00:14.429Z,5708
2017-09-17T13:01:14.132Z,5712
2017-09-17T13:02:14.161Z,5776
2017-09-17T13:03:14.186Z,5748
2017-09-17T13:04:28.525Z,5600
2017-09-17T13:05:14.239Z,5480
2017-09-17T13:06:14.569Z,5352
2017-09-17T13:07:13.674Z,5252
2017-09-17T13:08:14.628Z,5188
2017-09-17T13:09:14.661Z,5168
2017-09-17T13:10:14.056Z,5152
2017-09-17T13:11:14.395Z,5184
2017-09-17T13:12:29.342Z,5224
2017-09-17T13:13:14.127Z,5204
2017-09-17T13:14:14.500Z,5188
2017-09-17T13:15:14.801Z,5088
2017-09-17T13:16:14.514Z,4964
2017-09-17T13:17:14.851Z,4836
2017-09-17T13:18:14.873Z,4692
2017-09-17T13:19:14.585Z,4596
2017-09-17T13:20:14.929Z,4536
2017-09-17T13:21:14.946Z,4504
2017-09-17T13:22:14.967Z,4528
2017-09-17T13:23:29.623Z,4600
2017-09-17T13:24:14.403Z,4624
2017-09-17T13:25:43.980Z,4688
2017-09-17T13:26:14.763Z,4724
2017-09-17T13:27:29.718Z,4800
2017-09-17T13:28:15.121Z,4816
2017-09-17T13:29:15.201Z,4752
2017-09-17T13:30:29.485Z,4620
2017-09-17T13:31:14.578Z,4560
2017-09-17T13:32:15.217Z,4512
2017-09-17T13:33:29.557Z,4432
2017-09-17T13:34:15.267Z,4344
2017-09-17T13:35:14.678Z,4260
2017-09-17T13:36:15.316Z,4196
2017-09-17T13:37:15.078Z,4128
2017-09-17T13:38:15.375Z,4048
2017-09-17T13:39:15.083Z,3980
2017-09-17T13:40:30.039Z,3940
2017-09-17T13:41:30.063Z,3904
2017-09-17T13:42:14.852Z,3884
2017-09-17T13:43:30.111Z,3848
2017-09-17T13:44:30.137Z,3820
2017-09-17T13:45:30.162Z,3780
2017-09-17T13:46:15.255Z,3764
2017-09-17T13:47:15.589Z,3780
2017-09-17T13:48:15.613Z,3788
2017-09-17T13:49:29.952Z,3792
2017-09-17T13:50:15.661Z,3788
2017-09-17T13:52:15.717Z,3788
2017-09-17T13:53:15.737Z,3768
2017-09-17T13:54:15.759Z,3784
2017-09-17T13:55:15.476Z,3832
2017-09-17T13:56:15.507Z,3904
2017-09-17T13:57:30.462Z,3988
2017-09-17T13:58:30.482Z,4040
2017-09-17T13:59:15.574Z,4104
2017-09-17T14:00:30.227Z,4244
2017-09-17T14:01:15.630Z,4328
2017-09-17T14:02:15.651Z,4440
2017-09-17T14:03:15.678Z,4524
2017-09-17T14:04:15.700Z,4556
2017-09-17T14:05:16.034Z,4560
2017-09-17T14:06:15.794Z,4536
2017-09-17T14:07:15.775Z,4512
2017-09-17T14:08:15.796Z,4332
2017-09-17T14:09:16.129Z,4408
2017-09-17T14:10:16.153Z,4520
2017-09-17T14:11:16.185Z,4600
2017-09-17T14:13:30.850Z,4808
2017-09-17T14:14:16.254Z,4828
2017-09-17T14:15:16.279Z,4824
2017-09-17T14:16:30.931Z,4792